createdAt,value
2022-12-31T00:02:23.685Z,16.25
2022-12-31T00:04:50.843Z,17.25
2022-12-31T00:07:18.183Z,17.05
2022-12-31T00:09:45.411Z,17.02
2022-12-31T00:12:12.423Z,16.58
2022-12-31T00:14:39.433Z,17.55
2022-12-31T00:17:06.618Z,16.98
2022-12-31T00:19:33.831Z,16.73
2022-12-31T00:22:00.869Z,15.60
2022-12-31T00:24:31.163Z,15.25
2022-12-31T00:26:58.319Z,16.77
2022-12-31T00:29:25.432Z,15.10
2022-12-31T00:31:52.455Z,16.27
2022-12-31T00:34:19.623Z,13.73
2022-12-31T00:36:46.907Z,14.27
2022-12-31T00:39:14.054Z,14.65
2022-12-31T00:41:43.339Z,14.63
2022-12-31T00:44:12.431Z,14.70
2022-12-31T00:49:06.512Z,14.68
2022-12-31T00:51:34.068Z,14.45
2022-12-31T00:54:01.436Z,15.55
2022-12-31T00:56:30.585Z,14.73
2022-12-31T00:59:00.295Z,15.13
2022-12-31T01:01:30.241Z,15.65
2022-12-31T01:04:00.993Z,14.55
2022-12-31T01:06:28.181Z,15.68
2022-12-31T01:08:55.816Z,14.98
2022-12-31T01:11:24.369Z,15.25
2022-12-31T01:13:56.662Z,14.65
2022-12-31T01:16:29.849Z,13.93
2022-12-31T01:18:59.756Z,13.00
2022-12-31T01:21:27.165Z,13.60
2022-12-31T01:23:54.325Z,13.90
2022-12-31T01:26:21.658Z,14.32
2022-12-31T01:28:48.888Z,14.93
2022-12-31T01:31:19.142Z,15.05
2022-12-31T01:33:46.596Z,16.38
2022-12-31T01:36:21.881Z,14.85
2022-12-31T01:38:53.145Z,15.55
2022-12-31T01:41:24.626Z,14.15
2022-12-31T01:43:55.528Z,14.18
2022-12-31T01:46:55.380Z,13.45
2022-12-31T01:49:35.064Z,14.40
2022-12-31T01:52:05.620Z,14.05
2022-12-31T01:54:37.037Z,14.88
2022-12-31T01:57:05.420Z,15.25
2022-12-31T01:59:33.798Z,14.45
2022-12-31T02:02:02.043Z,13.73
2022-12-31T02:04:30.031Z,13.50
2022-12-31T02:07:02.553Z,13.13
2022-12-31T02:09:30.726Z,13.82
2022-12-31T02:11:58.087Z,13.73
2022-12-31T02:14:30.747Z,13.68
2022-12-31T02:17:28.803Z,14.88
2022-12-31T02:20:15.832Z,14.82
2022-12-31T02:23:06.279Z,14.73
2022-12-31T02:26:00.796Z,14.30
2022-12-31T02:29:07.167Z,14.43
2022-12-31T02:31:47.415Z,14.13
2022-12-31T02:34:19.297Z,14.30
2022-12-31T02:36:48.067Z,15.38
2022-12-31T02:39:15.801Z,13.63
2022-12-31T02:41:50.114Z,13.27
2022-12-31T02:44:26.148Z,12.32
2022-12-31T02:47:18.643Z,14.43
2022-12-31T02:50:09.008Z,13.60
2022-12-31T02:52:55.390Z,13.98
2022-12-31T02:55:31.457Z,13.27
2022-12-31T02:58:48.752Z,13.88
2022-12-31T03:01:40.202Z,13.38
2022-12-31T03:04:27.613Z,13.23
2022-12-31T03:06:54.881Z,13.48
2022-12-31T03:09:21.998Z,13.80
2022-12-31T03:12:09.113Z,13.80
2022-12-31T03:14:37.197Z,13.45
2022-12-31T03:17:04.296Z,14.68
2022-12-31T03:19:51.205Z,13.13
2022-12-31T03:22:33.741Z,12.57
2022-12-31T03:25:24.110Z,13.15
2022-12-31T03:27:53.809Z,14.15
2022-12-31T03:30:22.599Z,14.38
2022-12-31T03:32:50.603Z,13.55
2022-12-31T03:35:20.341Z,13.80
2022-12-31T03:37:48.619Z,13.45
2022-12-31T03:40:16.691Z,13.85
2022-12-31T03:42:43.722Z,15.13
2022-12-31T03:45:12.766Z,15.73
2022-12-31T03:47:40.542Z,16.73
2022-12-31T03:50:09.311Z,16.33
2022-12-31T03:52:36.455Z,16.95
2022-12-31T03:55:04.398Z,16.30
2022-12-31T03:57:31.661Z,18.75
2022-12-31T03:59:59.033Z,18.52
2022-12-31T04:02:28.773Z,18.52
2022-12-31T04:04:56.562Z,17.02
2022-12-31T04:07:23.941Z,16.42
2022-12-31T04:09:51.058Z,15.50
2022-12-31T04:12:18.225Z,13.93
2022-12-31T04:14:45.275Z,15.85
2022-12-31T04:17:12.277Z,15.85
2022-12-31T04:19:39.382Z,15.48
2022-12-31T04:22:06.473Z,15.40
2022-12-31T04:24:33.545Z,15.85
2022-12-31T04:27:07.072Z,15.82
2022-12-31T04:29:35.462Z,15.98
2022-12-31T04:32:03.460Z,16.13
2022-12-31T04:34:30.752Z,15.07
2022-12-31T04:36:57.946Z,16.02
2022-12-31T04:39:25.500Z,14.73
2022-12-31T04:41:52.932Z,14.75
2022-12-31T04:44:20.745Z,16.13
2022-12-31T04:46:47.828Z,17.63
2022-12-31T04:49:14.978Z,16.38
2022-12-31T04:51:42.069Z,17.77
2022-12-31T04:54:09.111Z,17.48
2022-12-31T04:56:36.894Z,17.42
2022-12-31T04:59:05.666Z,17.23
2022-12-31T05:01:33.522Z,16.80
2022-12-31T05:04:01.267Z,20.38
2022-12-31T05:06:28.337Z,18.85
2022-12-31T05:08:55.883Z,18.95
2022-12-31T05:11:22.933Z,18.73
2022-12-31T05:13:49.975Z,17.35
2022-12-31T05:16:17.146Z,18.15
2022-12-31T05:18:44.238Z,16.45
2022-12-31T05:21:18.140Z,17.13
2022-12-31T05:23:45.158Z,12.27
2022-12-31T05:26:12.226Z,16.50
2022-12-31T05:28:40.221Z,16.52
2022-12-31T05:31:07.597Z,15.10
2022-12-31T05:33:34.795Z,16.63
2022-12-31T05:36:01.980Z,20.55
2022-12-31T05:38:29.091Z,18.30
2022-12-31T05:41:00.757Z,16.33
2022-12-31T05:43:28.124Z,16.20
2022-12-31T05:45:55.282Z,16.65
2022-12-31T05:48:22.642Z,16.23
2022-12-31T05:50:50.378Z,15.30
2022-12-31T05:53:17.411Z,15.75
2022-12-31T05:55:47.256Z,16.02
2022-12-31T05:58:15.581Z,15.80
2022-12-31T06:00:43.213Z,16.52
2022-12-31T06:03:10.744Z,16.98
2022-12-31T06:05:42.788Z,16.45
2022-12-31T06:08:12.132Z,16.63
2022-12-31T06:10:39.951Z,15.13
2022-12-31T06:13:07.447Z,15.30
2022-12-31T06:15:39.559Z,16.88
2022-12-31T06:18:07.027Z,16.98
2022-12-31T06:20:36.980Z,16.27
2022-12-31T06:23:04.571Z,18.30
2022-12-31T06:25:31.677Z,17.20
2022-12-31T06:27:58.724Z,16.80
2022-12-31T06:30:25.957Z,17.52
2022-12-31T06:32:53.035Z,16.75
2022-12-31T06:35:21.328Z,17.35
2022-12-31T06:37:48.561Z,17.35
2022-12-31T06:40:15.677Z,18.42
2022-12-31T06:42:42.787Z,19.60
2022-12-31T06:45:10.408Z,19.13
2022-12-31T06:47:37.761Z,18.85
2022-12-31T06:50:05.441Z,19.35
2022-12-31T06:52:33.041Z,20.15
2022-12-31T06:55:00.776Z,19.48
2022-12-31T06:57:28.575Z,17.52
2022-12-31T06:59:55.940Z,17.02
2022-12-31T07:02:27.960Z,23.48
2022-12-31T07:05:22.709Z,17.05
2022-12-31T07:08:05.871Z,14.88
2022-12-31T07:11:13.416Z,19.05
2022-12-31T07:14:00.027Z,16.40
2022-12-31T07:17:07.042Z,17.23
2022-12-31T07:19:48.214Z,14.70
2022-12-31T07:22:18.746Z,12.53
2022-12-31T07:24:46.365Z,17.65
2022-12-31T07:27:32.829Z,16.90
2022-12-31T07:30:06.576Z,26.67
2022-12-31T07:32:57.110Z,13.00
2022-12-31T07:35:54.936Z,15.50
2022-12-31T07:38:38.223Z,15.40
2022-12-31T07:41:45.185Z,15.82
2022-12-31T07:44:13.428Z,14.82
2022-12-31T07:46:56.907Z,14.70
2022-12-31T07:49:26.243Z,14.98
2022-12-31T07:51:54.337Z,15.38
2022-12-31T07:54:22.036Z,15.45
2022-12-31T07:56:50.641Z,14.55
2022-12-31T07:59:33.816Z,17.35
2022-12-31T08:02:16.033Z,17.92
2022-12-31T08:05:02.380Z,15.20
2022-12-31T08:07:47.611Z,13.75
2022-12-31T08:10:39.136Z,14.98
2022-12-31T08:13:10.878Z,13.07
2022-12-31T08:15:39.688Z,13.40
2022-12-31T08:18:07.953Z,15.05
2022-12-31T08:20:47.029Z,15.95
2022-12-31T08:23:39.855Z,13.45
2022-12-31T08:26:11.359Z,13.88
2022-12-31T08:29:01.340Z,13.50
2022-12-31T08:31:45.232Z,12.75
2022-12-31T08:34:39.337Z,11.40
2022-12-31T08:37:17.984Z,10.95
2022-12-31T08:40:08.472Z,10.30
2022-12-31T08:42:55.027Z,10.68
2022-12-31T08:45:37.990Z,11.02
2022-12-31T08:48:13.129Z,10.73
2022-12-31T08:50:40.573Z,11.00
2022-12-31T08:53:08.258Z,11.55
2022-12-31T08:55:35.812Z,12.65
2022-12-31T08:58:29.008Z,13.25
2022-12-31T09:00:59.116Z,12.27
2022-12-31T09:03:34.733Z,12.95
2022-12-31T09:06:21.899Z,12.77
2022-12-31T09:09:08.427Z,11.85
2022-12-31T09:11:58.814Z,12.45
2022-12-31T09:14:39.560Z,11.63
2022-12-31T09:17:27.850Z,12.43
2022-12-31T09:19:55.303Z,12.00
2022-12-31T09:22:23.595Z,11.88
2022-12-31T09:24:51.207Z,12.50
2022-12-31T09:27:27.866Z,12.50
2022-12-31T09:30:04.263Z,12.35
2022-12-31T09:32:51.896Z,11.88
2022-12-31T09:35:42.477Z,11.50
2022-12-31T09:38:18.005Z,11.68
2022-12-31T09:41:04.736Z,12.05
2022-12-31T09:43:46.187Z,11.73
2022-12-31T09:46:21.015Z,12.35
2022-12-31T09:49:11.392Z,11.52
2022-12-31T09:52:07.808Z,12.05
2022-12-31T09:54:44.339Z,11.55
2022-12-31T09:57:24.508Z,12.35
2022-12-31T09:59:57.906Z,11.95
2022-12-31T10:02:45.697Z,11.85
2022-12-31T10:05:40.510Z,12.25
2022-12-31T10:08:28.703Z,12.57
2022-12-31T10:11:03.222Z,11.80
2022-12-31T10:16:28.329Z,11.85
2022-12-31T10:18:59.904Z,8.80
2022-12-31T10:21:47.154Z,11.40
2022-12-31T10:24:29.234Z,12.18
2022-12-31T10:27:16.481Z,11.98
2022-12-31T10:29:56.878Z,12.07
2022-12-31T10:32:41.767Z,12.15
2022-12-31T10:38:05.241Z,12.10
2022-12-31T10:41:11.533Z,11.70
2022-12-31T10:44:18.629Z,12.77
2022-12-31T10:47:05.688Z,11.43
2022-12-31T10:49:41.157Z,11.00
2022-12-31T10:52:29.164Z,11.95
2022-12-31T10:55:28.761Z,11.55
2022-12-31T10:58:35.637Z,10.80
2022-12-31T11:01:09.293Z,11.57
2022-12-31T11:03:38.740Z,12.17
2022-12-31T11:06:45.675Z,11.60
2022-12-31T11:09:36.336Z,11.85
2022-12-31T11:12:23.313Z,12.52
2022-12-31T11:14:57.997Z,12.13
2022-12-31T11:20:10.814Z,11.93
2022-12-31T11:22:54.129Z,11.82
2022-12-31T11:25:32.379Z,11.70
2022-12-31T11:28:21.614Z,11.55
2022-12-31T11:31:12.946Z,11.40
2022-12-31T11:33:57.774Z,11.35
2022-12-31T11:36:39.454Z,11.80
2022-12-31T11:39:27.344Z,10.57
2022-12-31T11:42:04.966Z,11.20
2022-12-31T11:44:39.442Z,11.20
2022-12-31T11:47:15.246Z,11.30
2022-12-31T11:49:46.875Z,10.93
2022-12-31T11:52:53.862Z,10.27
2022-12-31T11:55:47.199Z,10.20
2022-12-31T11:58:17.220Z,10.20
2022-12-31T12:00:54.721Z,10.73
2022-12-31T12:03:23.376Z,10.50
2022-12-31T12:05:50.969Z,9.98
2022-12-31T12:08:18.142Z,9.73
2022-12-31T12:10:50.828Z,9.68
2022-12-31T12:13:17.880Z,10.43
2022-12-31T12:15:49.521Z,9.98
2022-12-31T12:18:44.196Z,9.73
2022-12-31T12:21:14.121Z,10.50
2022-12-31T12:23:42.650Z,10.65
2022-12-31T12:26:29.009Z,11.10
2022-12-31T12:29:00.084Z,10.57
2022-12-31T12:31:27.601Z,10.40
2022-12-31T12:33:55.184Z,12.52
2022-12-31T12:36:22.433Z,11.35
2022-12-31T12:39:03.481Z,11.23
2022-12-31T12:41:31.153Z,10.38
2022-12-31T12:44:09.100Z,10.80
2022-12-31T12:46:47.952Z,10.82
2022-12-31T12:49:25.094Z,9.80
2022-12-31T12:52:08.901Z,10.80
2022-12-31T12:54:51.975Z,10.70
2022-12-31T12:57:45.395Z,10.43
2022-12-31T13:00:21.169Z,10.07
2022-12-31T13:03:28.059Z,11.27
2022-12-31T13:06:35.147Z,10.85
2022-12-31T13:09:22.256Z,10.57
2022-12-31T13:11:59.904Z,9.63
2022-12-31T13:15:11.258Z,9.15
2022-12-31T13:17:56.074Z,9.45
2022-12-31T13:20:46.180Z,9.40
2022-12-31T13:23:39.799Z,10.93
2022-12-31T13:26:23.606Z,9.73
2022-12-31T13:28:52.812Z,9.77
2022-12-31T13:31:29.418Z,9.93
2022-12-31T13:34:03.773Z,10.70
2022-12-31T13:36:35.586Z,10.90
2022-12-31T13:39:10.765Z,11.35
2022-12-31T13:41:57.920Z,10.60
2022-12-31T13:44:55.366Z,11.98
2022-12-31T13:47:31.017Z,17.30
2022-12-31T13:52:34.845Z,13.93
2022-12-31T13:55:24.561Z,10.27
2022-12-31T13:57:58.043Z,9.20
2022-12-31T14:00:30.260Z,9.73
2022-12-31T14:03:25.029Z,12.27
2022-12-31T14:06:01.273Z,11.88
2022-12-31T14:08:28.591Z,11.90
2022-12-31T14:10:59.244Z,10.88
2022-12-31T14:13:41.728Z,10.85
2022-12-31T14:16:10.890Z,10.55
2022-12-31T14:18:51.746Z,9.80
2022-12-31T14:21:44.288Z,9.48
2022-12-31T14:24:16.049Z,9.60
2022-12-31T14:26:49.222Z,9.88
2022-12-31T14:29:19.046Z,9.50
2022-12-31T14:31:49.744Z,10.40
2022-12-31T14:34:21.376Z,8.73
2022-12-31T14:37:09.676Z,10.75
2022-12-31T14:40:06.230Z,10.63
2022-12-31T14:42:53.304Z,11.10
2022-12-31T14:45:40.471Z,10.23
2022-12-31T14:48:32.188Z,10.45
2022-12-31T14:51:02.705Z,10.57
2022-12-31T14:53:30.162Z,8.50
2022-12-31T14:56:00.898Z,10.18
2022-12-31T14:58:37.990Z,11.27
2022-12-31T15:01:08.935Z,9.05
2022-12-31T15:03:45.043Z,9.50
2022-12-31T15:06:23.915Z,9.75
2022-12-31T15:09:19.826Z,9.68
2022-12-31T15:11:48.019Z,10.23
2022-12-31T15:14:55.106Z,12.85
2022-12-31T15:17:26.836Z,13.85
2022-12-31T15:20:33.673Z,13.45
2022-12-31T15:23:01.041Z,13.23
2022-12-31T15:25:28.430Z,12.77
2022-12-31T15:27:58.271Z,13.70
2022-12-31T15:30:46.952Z,16.52
2022-12-31T15:33:35.633Z,12.77
2022-12-31T15:36:22.339Z,12.63
2022-12-31T15:38:51.008Z,11.10
2022-12-31T15:41:19.264Z,11.10
2022-12-31T15:43:50.952Z,10.50
2022-12-31T15:46:23.919Z,11.07
2022-12-31T15:49:03.651Z,11.02
2022-12-31T15:51:40.065Z,10.50
2022-12-31T15:54:16.680Z,12.00
2022-12-31T15:56:47.265Z,11.55
2022-12-31T15:59:17.059Z,11.75
2022-12-31T16:01:46.238Z,11.75
2022-12-31T16:04:23.894Z,11.68
2022-12-31T16:06:52.577Z,12.77
2022-12-31T16:09:30.578Z,12.73
2022-12-31T16:11:58.687Z,11.95
2022-12-31T16:14:46.494Z,16.58
2022-12-31T16:17:33.230Z,18.10
2022-12-31T16:20:02.505Z,16.23
2022-12-31T16:22:37.164Z,14.93
2022-12-31T16:27:55.106Z,14.18
2022-12-31T16:30:29.051Z,10.93
2022-12-31T16:33:04.840Z,11.32
2022-12-31T16:35:34.636Z,11.43
2022-12-31T16:38:12.365Z,11.80
2022-12-31T16:40:42.082Z,11.02
2022-12-31T16:43:29.387Z,11.25
2022-12-31T16:46:07.178Z,11.88
2022-12-31T16:48:34.812Z,12.23
2022-12-31T16:51:02.163Z,13.00
2022-12-31T16:53:34.237Z,10.88
2022-12-31T16:56:05.708Z,11.93
2022-12-31T16:58:36.575Z,11.27
2022-12-31T17:01:07.480Z,11.70
2022-12-31T17:03:37.649Z,12.88
2022-12-31T17:06:09.694Z,15.02
2022-12-31T17:08:43.311Z,23.17
2022-12-31T17:11:30.536Z,24.73
2022-12-31T17:14:07.382Z,27.05
2022-12-31T17:16:38.556Z,23.10
2022-12-31T17:19:05.877Z,21.45
2022-12-31T17:21:33.657Z,21.77
2022-12-31T17:24:04.758Z,17.50
2022-12-31T17:26:34.969Z,16.88
2022-12-31T17:29:04.055Z,15.60
2022-12-31T17:31:40.790Z,16.05
2022-12-31T17:34:15.911Z,14.30
2022-12-31T17:37:15.892Z,15.32
2022-12-31T17:39:46.552Z,15.05
2022-12-31T17:42:22.710Z,14.48
2022-12-31T17:44:50.052Z,13.80
2022-12-31T17:47:17.243Z,13.85
2022-12-31T17:49:45.809Z,13.27
2022-12-31T17:52:15.325Z,13.10
2022-12-31T17:54:42.965Z,13.32
2022-12-31T17:57:24.476Z,13.23
2022-12-31T17:59:51.731Z,12.85
2022-12-31T18:02:19.005Z,14.13
2022-12-31T18:04:46.126Z,14.07
2022-12-31T18:07:13.259Z,15.40
2022-12-31T18:09:40.686Z,14.52
2022-12-31T18:12:08.264Z,14.48
2022-12-31T18:14:35.644Z,14.80
2022-12-31T18:17:02.950Z,16.77
2022-12-31T18:20:02.971Z,20.42
2022-12-31T18:22:17.493Z,27.35
2022-12-31T18:24:44.940Z,26.30
2022-12-31T18:27:17.612Z,22.40
2022-12-31T18:29:45.937Z,23.30
2022-12-31T18:32:33.033Z,19.90
2022-12-31T18:35:00.334Z,20.35
2022-12-31T18:37:29.617Z,28.20
2022-12-31T18:39:56.669Z,23.48
2022-12-31T18:42:26.906Z,34.55
2022-12-31T18:44:54.524Z,46.90
2022-12-31T18:47:25.145Z,44.65
2022-12-31T18:49:52.425Z,35.72
2022-12-31T18:52:23.053Z,29.83
2022-12-31T18:54:50.575Z,24.38
2022-12-31T18:57:17.705Z,25.05
2022-12-31T18:59:45.039Z,19.52
2022-12-31T19:02:16.811Z,19.35
2022-12-31T19:04:44.131Z,19.85
2022-12-31T19:07:11.441Z,16.52
2022-12-31T19:09:46.778Z,12.93
2022-12-31T19:12:15.338Z,14.13
2022-12-31T19:14:42.807Z,12.52
2022-12-31T19:19:36.154Z,13.57
2022-12-31T19:22:03.410Z,13.57
2022-12-31T19:24:30.522Z,15.50
2022-12-31T19:26:57.727Z,17.08
2022-12-31T19:29:27.327Z,17.35
2022-12-31T19:31:55.129Z,16.60
2022-12-31T19:34:22.601Z,18.05
2022-12-31T19:36:49.901Z,17.42
2022-12-31T19:39:19.639Z,18.70
2022-12-31T19:41:52.924Z,19.50
2022-12-31T19:44:26.451Z,19.75
2022-12-31T19:46:53.730Z,24.10
2022-12-31T19:49:21.401Z,69.80
2022-12-31T19:51:49.263Z,91.95
2022-12-31T19:54:16.515Z,30.77
2022-12-31T19:56:43.672Z,27.05
2022-12-31T19:59:11.206Z,20.58
2022-12-31T20:01:39.143Z,18.80
2022-12-31T20:04:06.670Z,17.10
2022-12-31T20:06:33.732Z,17.77
2022-12-31T20:09:02.399Z,16.40
2022-12-31T20:11:29.608Z,15.65
2022-12-31T20:13:56.717Z,15.52
2022-12-31T20:16:27.145Z,16.27
2022-12-31T20:18:54.524Z,15.13
2022-12-31T20:21:24.535Z,15.57
2022-12-31T20:23:53.324Z,16.38
2022-12-31T20:26:22.401Z,16.75
2022-12-31T20:28:49.823Z,17.15
2022-12-31T20:31:19.772Z,17.52
2022-12-31T20:33:46.980Z,20.70
2022-12-31T20:36:16.649Z,22.38
2022-12-31T20:38:44.783Z,22.65
2022-12-31T20:41:18.750Z,20.10
2022-12-31T20:43:46.228Z,31.50
2022-12-31T20:46:16.532Z,20.35
2022-12-31T20:48:45.353Z,18.55
2022-12-31T20:51:13.739Z,19.58
2022-12-31T20:53:45.315Z,20.88
2022-12-31T20:56:12.551Z,33.00
2022-12-31T20:58:39.594Z,38.90
2022-12-31T21:01:09.182Z,24.60
2022-12-31T21:04:04.250Z,25.58
2022-12-31T21:06:25.656Z,15.77
2022-12-31T21:08:54.325Z,15.85
2022-12-31T21:11:41.445Z,24.15
2022-12-31T21:14:09.812Z,21.63
2022-12-31T21:16:37.261Z,20.17
2022-12-31T21:19:05.553Z,20.75
2022-12-31T21:21:33.862Z,21.40
2022-12-31T21:24:00.968Z,19.70
2022-12-31T21:26:29.588Z,19.98
2022-12-31T21:28:56.746Z,20.35
2022-12-31T21:31:24.041Z,22.25
2022-12-31T21:33:51.229Z,20.98
2022-12-31T21:36:18.514Z,20.52
2022-12-31T21:38:45.718Z,21.23
2022-12-31T21:41:34.885Z,19.17
2022-12-31T21:44:02.526Z,19.67
2022-12-31T21:46:30.205Z,17.27
2022-12-31T21:48:58.878Z,15.93
2022-12-31T21:51:26.847Z,16.45
2022-12-31T21:53:54.095Z,15.43
2022-12-31T21:56:22.583Z,16.85
2022-12-31T21:59:15.902Z,18.08
2022-12-31T22:02:03.152Z,18.05
2022-12-31T22:07:17.810Z,18.23
2022-12-31T22:09:44.896Z,18.70
2022-12-31T22:12:11.926Z,17.65
2022-12-31T22:14:38.984Z,16.25
2022-12-31T22:17:25.989Z,16.15
2022-12-31T22:20:25.380Z,17.35
2022-12-31T22:22:40.186Z,17.02
2022-12-31T22:25:07.742Z,17.40
2022-12-31T22:27:34.839Z,17.17
2022-12-31T22:30:01.893Z,17.27
2022-12-31T22:32:28.957Z,17.00
2022-12-31T22:34:55.975Z,16.83
2022-12-31T22:37:55.152Z,17.17
2022-12-31T22:40:10.651Z,19.38
2022-12-31T22:42:38.021Z,17.45
2022-12-31T22:45:06.993Z,18.00
2022-12-31T22:47:34.194Z,19.02
2022-12-31T22:50:01.207Z,20.67
2022-12-31T22:52:28.253Z,21.20
2022-12-31T22:54:55.287Z,48.30
2022-12-31T22:57:22.292Z,43.72
2022-12-31T22:59:49.555Z,32.10
2022-12-31T23:02:16.722Z,25.73
2022-12-31T23:04:44.009Z,29.95
2022-12-31T23:07:11.113Z,26.27
2022-12-31T23:09:58.198Z,24.92
2022-12-31T23:12:25.512Z,22.60
2022-12-31T23:15:12.446Z,21.65
2022-12-31T23:17:59.628Z,21.70
2022-12-31T23:20:46.563Z,18.83
2022-12-31T23:23:16.255Z,18.77
2022-12-31T23:25:48.152Z,19.60
2022-12-31T23:28:17.861Z,19.13
2022-12-31T23:30:45.595Z,34.10
2022-12-31T23:33:15.812Z,28.55
2022-12-31T23:35:43.249Z,28.48
2022-12-31T23:38:11.385Z,30.95
2022-12-31T23:40:38.966Z,29.42
2022-12-31T23:43:08.574Z,27.02
2022-12-31T23:45:36.433Z,28.13
2022-12-31T23:48:03.696Z,26.45
2022-12-31T23:50:30.885Z,27.73
2022-12-31T23:52:58.015Z,25.02
2022-12-31T23:55:25.421Z,26.58
2022-12-31T23:57:52.449Z,24.33
